Terminal Aerodrome Forecast
Issued by NWS Chicago, IL

Home | Current Version | Previous Version | Graphics & Text | Print | Product List | Glossary On
Versions: 1 2 3 4 5 6 7 8 9 10 11 12 13 14 15 16 17 18 19 20 21 22 23 24 25 26 27 28 29 30 31
000
FTUS43 KLOT 281742
TAFRFD
TAF
KRFD 281742Z 2818/2918 18009KT P6SM VCSH SCT040 SCT250
     FM282100 15005KT P6SM VCTS SCT050CB SCT100 BKN150
     FM290000 18008KT P6SM VCTS BKN070CB BKN100 PROB30 2903/2907 3SM
      TSRA OVC050CB
     FM290900 26009KT P6SM VCSH SCT020 OVC040
     FM291200 29011G16KT P6SM SCT040 BKN140=

USA.gov is the U.S. government's official web portal to all federal, state and local government web resources and services.